• Join FlightAware (Why Join?)
  • Login
  • US Flag 
03:25PM EST


 

Airport Tracker/Info


-or-


 

Live Flight TrackerFlight Track Log ✈ AVN21 ✈ 03-Nov-2013 ✈ YBBN / BNE - NVVV / VLI

Flight Track Log - Related Links

Times and Time Zones

All times are in EST time to prevent confusion due to time zone crossing. See the AVN21 flight status page for this flight to view local times or setup timezone preferences in your user account.

Time Position Orientation Groundspeed Altitude Reporting Facility
EST Latitude Longitude Course Direction KTS MPH feet Rate Location/Type
05:34AM -27.3952 153.1226 27° Northeast 115 132  Level FlightAware ADS-B (EKCH / CPH)
05:35AM -27.3837 153.1292 27° Northeast 149 171 300 1,680 Climbing FlightAware ADS-B (EKCH / CPH)
05:35AM -27.3710 153.1365 27° Northeast 141 162 1,200 2,400 Climbing FlightAware ADS-B (EKCH / CPH)
05:35AM -27.3654 153.1413 37° Northeast 150 173 1,500 1,380 Climbing FlightAware ADS-B (EKCH / CPH)
05:36AM -27.3542 153.1529 43° Northeast 170 196 1,900 1,320 Climbing FlightAware ADS-B (EKCH / CPH)
05:36AM -27.3419 153.1646 40° Northeast 187 215 2,400 1,620 Climbing FlightAware ADS-B (EKCH / CPH)
05:36AM -27.3281 153.1773 39° Northeast 200 230 3,000 1,560 Climbing FlightAware ADS-B (EKCH / CPH)
05:36AM -27.3222 153.1836 44° Northeast 213 245 3,200 1,200 Climbing FlightAware ADS-B (EKCH / CPH)
05:37AM -27.3167 153.1930 57° Northeast 230 265 3,400 1,200 Climbing FlightAware ADS-B (EKCH / CPH)
05:37AM -27.3078 153.2194 69° East 259 298 3,800 1,620 Climbing FlightAware ADS-B (EKCH / CPH)
05:37AM -27.3010 153.2458 74° East 280 322 4,500 1,920 Climbing FlightAware ADS-B (EKCH / CPH)
05:38AM -27.2940 153.2735 74° East 298 343 5,100 1,800 Climbing FlightAware ADS-B (EKCH / CPH)
05:38AM -27.2845 153.3064 72° East 319 367 5,700 1,920 Climbing FlightAware ADS-B (EKCH / CPH)
05:38AM -27.2753 153.3388 72° East 335 386 6,400 2,520 Climbing FlightAware ADS-B (EKCH / CPH)
05:39AM -27.2661 153.3726 73° East 339 390 7,400 3,000 Climbing FlightAware ADS-B (EKCH / CPH)
05:39AM -27.2566 153.4055 72° East 345 397 8,400 2,820 Climbing FlightAware ADS-B (EKCH / CPH)
05:39AM -27.2461 153.4407 71° East 354 407 9,300 2,760 Climbing FlightAware ADS-B (EKCH / CPH)
05:40AM -27.2315 153.4917 72° East 364 419 10,700 3,060 Climbing FlightAware ADS-B (EKCH / CPH)
05:40AM -27.2156 153.5472 72° East 365 420 12,400 3,360 Climbing FlightAware ADS-B (EKCH / CPH)
05:41AM -27.1996 153.6026 72° East 368 423 14,100 3,180 Climbing FlightAware ADS-B (EKCH / CPH)
05:41AM -27.1908 153.6322 72° East 384 442 14,900 2,580 Climbing FlightAware ADS-B
05:42AM -27.1674 153.6889 65° Northeast 392 451 16,200 2,760 Climbing FlightAware ADS-B
05:42AM -27.1331 153.7451 55° Northeast 409 471 17,800 2,880 Climbing FlightAware ADS-B (EKCH / CPH)
05:43AM -27.1010 153.7978 56° Northeast 414 476 19,200 2,580 Climbing FlightAware ADS-B (EKCH / CPH)
05:43AM -27.0694 153.8510 56° Northeast 427 491 20,400 2,400 Climbing FlightAware ADS-B (EKCH / CPH)
05:44AM -27.0354 153.9079 56° Northeast 434 499 21,600 2,460 Climbing FlightAware ADS-B (EKCH / CPH)
05:44AM -27.0020 153.9639 56° Northeast 439 505 22,900 2,460 Climbing FlightAware ADS-B (EKCH / CPH)
05:45AM -26.9672 154.0215 56° Northeast 445 512 24,100 2,280 Climbing FlightAware ADS-B (EKCH / CPH)
05:45AM -26.9533 154.0448 56° Northeast 446 513 24,500 1,800 Climbing FlightAware ADS-B
05:45AM -26.9091 154.1176 56° Northeast 460 529 25,600 1,740 Climbing FlightAware ADS-B (EKCH / CPH)
05:46AM -26.8746 154.1753 56° Northeast 468 539 26,500 2,100 Climbing FlightAware ADS-B (EKCH / CPH)
05:46AM -26.8386 154.2363 57° Northeast 468 539 27,700 1,980 Climbing FlightAware ADS-B (EKCH / CPH)
05:47AM -26.8012 154.3005 57° Northeast 476 548 28,500 1,500 Climbing FlightAware ADS-B (EKCH / CPH)
05:47AM -26.7639 154.3623 56° Northeast 484 557 29,200 1,380 Climbing FlightAware ADS-B (EKCH / CPH)
05:48AM -26.7259 154.4237 55° Northeast 492 566 29,900 1,200 Climbing FlightAware ADS-B (EKCH / CPH)
05:48AM -26.6861 154.4878 55° Northeast 504 580 30,400 1,080 Climbing FlightAware ADS-B (EKCH / CPH)
05:49AM -26.6470 154.5527 56° Northeast 511 588 31,000 1,200 Climbing FlightAware ADS-B (EKCH / CPH)
05:49AM -26.6084 154.6183 57° Northeast 516 594 31,600 1,620 Climbing FlightAware ADS-B (EKCH / CPH)
05:50AM -26.5551 154.7083 56° Northeast 510 587 32,900 1,620 Climbing FlightAware ADS-B (EKCH / CPH)
05:51AM -26.5145 154.7732 55° Northeast 514 592 33,500 1,500 Climbing FlightAware ADS-B (EKCH / CPH)
05:51AM -26.4757 154.8366 56° Northeast 510 587 34,400 1,800 Climbing FlightAware ADS-B (EKCH / CPH)
05:52AM -26.4213 154.9246 55° Northeast 505 581 35,600 1,440 Climbing FlightAware ADS-B (EKCH / CPH)
05:52AM -26.3845 154.9841 55° Northeast 508 585 36,100 900 Climbing FlightAware ADS-B (EKCH / CPH)
05:53AM -26.3434 155.0511 56° Northeast 515 593 36,500 1,020 Climbing FlightAware ADS-B (EKCH / CPH)
05:53AM -26.2888 155.1417 56° Northeast 510 587 37,300 1,260 Climbing FlightAware ADS-B (EKCH / CPH)
05:54AM -26.2493 155.2050 55° Northeast 508 585 38,000 1,260 Climbing FlightAware ADS-B (EKCH / CPH)
05:54AM -26.2101 155.2684 55° Northeast 507 583 38,600 1,080 Climbing FlightAware ADS-B (EKCH / CPH)
05:55AM -26.1697 155.3346 56° Northeast 504 580 39,100 960 Climbing FlightAware ADS-B (EKCH / CPH)
05:55AM -26.1321 155.3961 56° Northeast 503 579 39,600 900 Climbing FlightAware ADS-B (EKCH / CPH)
05:56AM -26.0913 155.4628 56° Northeast 501 577 40,000 360 Climbing FlightAware ADS-B (EKCH / CPH)
05:56AM -26.0523 155.5266 56° Northeast 503 579 40,000  Level FlightAware ADS-B (EKCH / CPH)
05:57AM -26.0141 155.5885 56° Northeast 503 579 40,000  Level FlightAware ADS-B (EKCH / CPH)
05:57AM -25.9747 155.6520 55° Northeast 503 579 40,000  Level FlightAware ADS-B (EKCH / CPH)
05:58AM -25.9340 155.7177 55° Northeast 502 578 40,000  Level FlightAware ADS-B (EKCH / CPH)
05:58AM -25.8961 155.7786 55° Northeast 503 579 40,000  Level FlightAware ADS-B (EKCH / CPH)
05:59AM -25.8547 155.8452 55° Northeast 503 579 40,000  Level FlightAware ADS-B (EKCH / CPH)
05:59AM -25.8143 155.9099 55° Northeast 503 579 40,000  Level FlightAware ADS-B (EKCH / CPH)
06:00AM -25.7747 155.9731 55° Northeast 504 580 40,000 60 Level FlightAware ADS-B (EKCH / CPH)
06:01AM -25.7270 156.0478 55° Northeast 495 570 40,100 60 Climbing Aus ATC (RADAR)
06:01AM -25.6813 156.1226 56° Northeast 495 570 40,100 -180 Level Aus ATC (RADAR)
06:01AM -25.6890 156.1090 56° Northeast 503 579 40,000  Descending FlightAware
06:02AM -25.6373 156.1994 56° Northeast 494 568 40,100  Climbing Aus ATC (RADAR)
06:02AM -25.6340 156.1960 56° Northeast 503 579 40,000 -120 Descending FlightAware
06:03AM -25.5940 156.2600 55° Northeast 503 579 40,000  Level FlightAware
06:03AM -25.5530 156.3250 55° Northeast 503 579 40,000  Level FlightAware
06:03AM -25.5068 156.4277 55° Northeast 493 567 40,000  Level Aus ATC (RADAR)
06:04AM -25.4569 156.5142 55° Northeast 493 567 40,000  Level Aus ATC (RADAR)
06:04AM -25.4820 156.4360 57° Northeast 503 579 40,000  Level FlightAware
06:05AM -25.4192 156.5784 57° Northeast 492 566 40,000  Level Aus ATC (RADAR)
06:05AM -25.4280 156.5220 57° Northeast 503 579 40,000  Level FlightAware
06:05AM -25.3613 156.6737 57° Northeast 491 565 40,000  Level Aus ATC (RADAR)
06:06AM -25.3870 156.5870 57° Northeast 503 579 40,000  Level FlightAware
06:06AM -25.3233 156.7373 57° Northeast 489 563 40,000  Level Aus ATC (RADAR)
06:06AM -25.2788 156.8105 57° Northeast 490 564 40,000  Level Aus ATC (RADAR)
06:07AM -25.2725 156.8205 55° Northeast 490 564 40,000  Level Aus ATC (RADAR)
06:12AM -24.9186 157.4155 57° Northeast 40,000  Level Aus ATC (Calculated)
06:14AM -24.7858 157.6370 57° Northeast  Level FlightAware Approximate
06:15AM -24.7157 157.7534 56° Northeast  Level FlightAware Approximate
06:15AM -24.6803 157.8121 56° Northeast 40,000  Level Aus ATC (Calculated)
06:15AM -24.6156 157.9192 56° Northeast 40,000  Level Aus ATC (Calculated)
06:17AM -24.5359 158.0507 56° Northeast  Level FlightAware Approximate
06:18AM -24.4656 158.1666 56° Northeast  Level FlightAware Approximate
06:19AM -24.3951 158.2824 56° Northeast  Level FlightAware Approximate
06:20AM -24.3246 158.3981 56° Northeast  Level FlightAware Approximate
06:21AM -24.2540 158.5136 56° Northeast  Level FlightAware Approximate
06:22AM -24.1832 158.6289 56° Northeast  Level FlightAware Approximate
06:23AM -24.1124 158.7442 56° Northeast  Level FlightAware Approximate
06:24AM -24.0415 158.8593 56° Northeast  Level FlightAware Approximate
06:25AM -23.9706 158.9743 56° Northeast  Level FlightAware Approximate
06:26AM -23.8995 159.0892 56° Northeast  Level FlightAware Approximate
06:27AM -23.8284 159.2039 56° Northeast  Level FlightAware Approximate
06:28AM -23.7571 159.3186 56° Northeast  Level FlightAware Approximate
06:28AM -23.6224 159.5331 234° Southwest 37,000  Level Aus ATC (Calculated)
06:29AM -23.6974 159.4215 234° Southwest  Level FlightAware Approximate
06:30AM -23.6224 159.5331 54° Northeast  Level FlightAware Approximate
06:30AM -23.4500 159.8080 235° Southwest 37,000  Level Aus ATC (Calculated)
06:32AM -23.5746 159.6106 235° Southwest  Level FlightAware Approximate
06:33AM -23.6463 159.4965 236° Southwest  Level FlightAware Approximate
06:34AM -23.5746 159.6106 56° Northeast  Level FlightAware Approximate
06:35AM -23.6463 159.4965 236° Southwest  Level FlightAware Approximate
06:36AM -23.5746 159.6106 56° Northeast  Level FlightAware Approximate
06:37AM -23.5986 159.5727 56° Northeast  Level FlightAware Approximate
06:38AM -23.5270 159.6869 56° Northeast  Level FlightAware Approximate
06:38AM -22.7458 160.9159 235° Southwest 37,000  Level Aus ATC (Calculated)
06:39AM -23.4554 159.8009 56° Northeast  Level FlightAware Approximate
06:40AM -22.6624 161.0456 55° Northeast  Level FlightAware Approximate
06:41AM -22.5898 161.1582 55° Northeast  Level FlightAware Approximate
06:41AM -22.5766 161.1786 55° Northeast 37,000  Level Aus ATC (Calculated)
06:42AM -22.5040 161.2911 55° Northeast  Level FlightAware Approximate
06:43AM -22.4312 161.4034 55° Northeast  Level FlightAware Approximate
06:44AM -22.3583 161.5157 55° Northeast  Level FlightAware Approximate
06:45AM -22.2854 161.6278 55° Northeast  Level FlightAware Approximate
06:46AM -22.2124 161.7398 55° Northeast  Level FlightAware Approximate
06:47AM -22.1393 161.8517 55° Northeast  Level FlightAware Approximate
06:48AM -22.0662 161.9634 55° Northeast  Level FlightAware Approximate
06:49AM -21.9930 162.0751 55° Northeast  Level FlightAware Approximate
06:50AM -21.9196 162.1866 55° Northeast  Level FlightAware Approximate
06:51AM -21.8463 162.2980 55° Northeast  Level FlightAware Approximate
06:51AM -21.7189 162.4908 55° Northeast 37,000  Level Aus ATC (Calculated)
06:52AM -21.6454 162.6019 55° Northeast  Level FlightAware Approximate
06:53AM -21.5717 162.7129 55° Northeast  Level FlightAware Approximate
06:53AM -21.5499 162.7457 54° Northeast 37,000  Level Aus ATC (Calculated)
06:55AM -21.4134 162.9507 54° Northeast  Level FlightAware Approximate
06:56AM -21.3395 163.0613 54° Northeast  Level FlightAware Approximate
06:56AM -21.3236 163.0838 234° Southwest 1,500  Level Aus ATC (Calculated)
06:57AM -21.3982 162.9738 234° Southwest  Level FlightAware Approximate
06:58AM -21.3236 163.0838 54° Northeast  Level FlightAware Approximate
06:59AM -21.3982 162.9738 234° Southwest  Level FlightAware Approximate
07:00AM -21.3236 163.0838 54° Northeast  Level FlightAware Approximate
07:01AM -21.3982 162.9738 234° Southwest  Level FlightAware Approximate
07:02AM -21.3236 163.0838 54° Northeast  Level FlightAware Approximate
07:03AM -21.3982 162.9738 234° Southwest  Level FlightAware Approximate
07:04AM -21.3236 163.0838 54° Northeast  Level FlightAware Approximate
07:05AM -21.3982 162.9738 234° Southwest  Level FlightAware Approximate
07:06AM -21.3236 163.0838 54° Northeast  Level FlightAware Approximate
07:07AM -21.3982 162.9738 234° Southwest  Level FlightAware Approximate
07:08AM -21.3426 163.0559 54° Northeast  Level FlightAware Approximate
07:09AM -21.2679 163.1658 54° Northeast  Level FlightAware Approximate
07:10AM -21.1931 163.2757 54° Northeast  Level FlightAware Approximate
07:11AM -21.1183 163.3854 54° Northeast  Level FlightAware Approximate
07:12AM -21.0434 163.4950 54° Northeast  Level FlightAware Approximate
07:13AM -20.9685 163.6046 54° Northeast  Level FlightAware Approximate
07:14AM -20.8934 163.7140 54° Northeast  Level FlightAware Approximate
07:15AM -20.8183 163.8233 54° Northeast  Level FlightAware Approximate
07:16AM -20.7431 163.9325 54° Northeast  Level FlightAware Approximate
07:17AM -20.6679 164.0415 54° Northeast  Level FlightAware Approximate
07:18AM -20.5926 164.1505 54° Northeast  Level FlightAware Approximate
07:19AM -20.5172 164.2594 54° Northeast  Level FlightAware Approximate
07:20AM -20.4417 164.3681 53° Northeast  Level FlightAware Approximate
07:21AM -20.3662 164.4768 53° Northeast  Level FlightAware Approximate
07:22AM -20.2906 164.5853 53° Northeast  Level FlightAware Approximate
07:23AM -20.2149 164.6938 53° Northeast  Level FlightAware Approximate
07:24AM -20.1392 164.8021 53° Northeast  Level FlightAware Approximate
07:25AM -20.0634 164.9103 53° Northeast  Level FlightAware Approximate
07:26AM -19.9876 165.0185 53° Northeast  Level FlightAware Approximate
07:27AM -19.9117 165.1265 53° Northeast  Level FlightAware Approximate
07:28AM -19.8357 165.2344 53° Northeast  Level FlightAware Approximate
07:29AM -19.7596 165.3422 53° Northeast  Level FlightAware Approximate
07:30AM -19.6835 165.4499 53° Northeast  Level FlightAware Approximate
07:31AM -19.6073 165.5575 53° Northeast  Level FlightAware Approximate
07:32AM -19.5311 165.6650 53° Northeast  Level FlightAware Approximate
07:33AM -19.4548 165.7724 53° Northeast  Level FlightAware Approximate
07:34AM -19.3784 165.8797 53° Northeast  Level FlightAware Approximate
07:35AM -19.3020 165.9869 53° Northeast  Level FlightAware Approximate
07:36AM -19.2255 166.0940 53° Northeast  Level FlightAware Approximate
07:37AM -19.1489 166.2010 53° Northeast  Level FlightAware Approximate
07:38AM -19.0723 166.3079 53° Northeast  Level FlightAware Approximate
07:39AM -18.9956 166.4147 53° Northeast  Level FlightAware Approximate
07:40AM -18.9189 166.5215 53° Northeast  Level FlightAware Approximate
07:41AM -18.8421 166.6281 53° Northeast  Level FlightAware Approximate
07:42AM -18.7652 166.7346 53° Northeast  Level FlightAware Approximate
07:43AM -18.6883 166.8410 53° Northeast  Level FlightAware Approximate
07:44AM -18.6113 166.9473 53° Northeast  Level FlightAware Approximate
07:45AM -18.5343 167.0535 53° Northeast  Level FlightAware Approximate
07:46AM -18.4572 167.1597 53° Northeast  Level FlightAware Approximate
07:47AM -18.3800 167.2657 53° Northeast  Level FlightAware Approximate
07:48AM -18.3028 167.3716 52° Northeast  Level FlightAware Approximate
07:49AM -18.2255 167.4775 52° Northeast  Level FlightAware Approximate
07:50AM -18.1482 167.5832 52° Northeast  Level FlightAware Approximate
07:51AM -18.0708 167.6889 52° Northeast  Level FlightAware Approximate
07:52AM -17.9933 167.7944 52° Northeast  Level FlightAware Approximate
07:53AM -17.9158 167.8999 52° Northeast  Level FlightAware Approximate
07:54AM -17.8383 168.0053 52° Northeast  Level FlightAware Approximate
07:55AM -17.7607 168.1105 52° Northeast  Level FlightAware Approximate
07:56AM -17.6830 168.2157 52° Northeast  Level FlightAware Approximate
07:57AM -17.6621 168.2439 54° Northeast  Level FlightAware Approximate
07:58AM -17.6993 168.3198 54° Northeast  Level Estimated
07:59AM -17.6993 168.3198 54° Northeast  Level Estimated
08:00AM -17.6993 168.3198 54° Northeast  Level Estimated
08:01AM -17.6993 168.3198 54° Northeast  Level Estimated